sensor_id;sensor_type;location;lat;lon;timestamp;P1;durP1;ratioP1;P2;durP2;ratioP2
64157;SDS011;50449;51.528;5.076;2024-03-23T00:54:06;94.32;;;90.13;;
64157;SDS011;50449;51.528;5.076;2024-03-23T00:56:32;95.18;;;90.88;;
64157;SDS011;50449;51.528;5.076;2024-03-23T00:58:57;92.55;;;88.40;;
64157;SDS011;50449;51.528;5.076;2024-03-23T01:01:22;95.15;;;90.95;;
64157;SDS011;50449;51.528;5.076;2024-03-23T01:03:48;90.85;;;86.68;;
64157;SDS011;50449;51.528;5.076;2024-03-23T01:06:13;96.40;;;92.13;;
64157;SDS011;50449;51.528;5.076;2024-03-23T01:08:38;99.53;;;94.70;;
64157;SDS011;50449;51.528;5.076;2024-03-23T01:11:04;97.18;;;92.78;;
64157;SDS011;50449;51.528;5.076;2024-03-23T01:13:29;92.70;;;88.50;;
64157;SDS011;50449;51.528;5.076;2024-03-23T01:15:55;97.15;;;92.10;;
64157;SDS011;50449;51.528;5.076;2024-03-23T01:18:22;93.82;;;89.68;;
64157;SDS011;50449;51.528;5.076;2024-03-23T01:20:48;90.53;;;86.22;;
64157;SDS011;50449;51.528;5.076;2024-03-23T01:23:14;96.65;;;92.15;;
64157;SDS011;50449;51.528;5.076;2024-03-23T01:25:40;96.53;;;91.93;;
64157;SDS011;50449;51.528;5.076;2024-03-23T01:28:05;95.70;;;91.43;;
64157;SDS011;50449;51.528;5.076;2024-03-23T01:30:31;94.20;;;90.10;;
64157;SDS011;50449;51.528;5.076;2024-03-23T01:32:57;96.50;;;91.72;;
64157;SDS011;50449;51.528;5.076;2024-03-23T01:35:22;91.93;;;87.93;;
64157;SDS011;50449;51.528;5.076;2024-03-23T01:37:48;89.40;;;85.47;;
64157;SDS011;50449;51.528;5.076;2024-03-23T01:40:13;91.65;;;87.65;;
64157;SDS011;50449;51.528;5.076;2024-03-23T01:42:42;95.55;;;91.35;;
64157;SDS011;50449;51.528;5.076;2024-03-23T01:45:07;89.53;;;85.53;;
64157;SDS011;50449;51.528;5.076;2024-03-23T01:47:34;93.05;;;88.65;;
64157;SDS011;50449;51.528;5.076;2024-03-23T01:49:59;92.35;;;88.05;;
64157;SDS011;50449;51.528;5.076;2024-03-23T01:52:25;91.18;;;86.82;;
64157;SDS011;50449;51.528;5.076;2024-03-23T01:54:52;98.32;;;93.78;;
64157;SDS011;50449;51.528;5.076;2024-03-23T01:57:18;96.63;;;92.43;;
64157;SDS011;50449;51.528;5.076;2024-03-23T01:59:43;96.70;;;92.25;;
64157;SDS011;50449;51.528;5.076;2024-03-23T02:02:09;96.35;;;91.95;;
64157;SDS011;50449;51.528;5.076;2024-03-23T02:04:34;98.78;;;94.18;;
64157;SDS011;50449;51.528;5.076;2024-03-23T02:06:59;97.82;;;92.93;;
64157;SDS011;50449;51.528;5.076;2024-03-23T02:09:25;94.97;;;90.88;;
64157;SDS011;50449;51.528;5.076;2024-03-23T02:11:50;99.25;;;94.85;;
64157;SDS011;50449;51.528;5.076;2024-03-23T02:14:15;97.85;;;93.55;;
64157;SDS011;50449;51.528;5.076;2024-03-23T02:16:41;94.85;;;90.72;;
64157;SDS011;50449;51.528;5.076;2024-03-23T02:19:08;95.13;;;90.18;;
64157;SDS011;50449;51.528;5.076;2024-03-23T02:21:33;94.78;;;90.70;;
64157;SDS011;50449;51.528;5.076;2024-03-23T02:23:59;97.70;;;93.00;;
64157;SDS011;50449;51.528;5.076;2024-03-23T02:26:25;98.43;;;93.65;;
64157;SDS011;50449;51.528;5.076;2024-03-23T02:28:50;97.32;;;93.13;;
64157;SDS011;50449;51.528;5.076;2024-03-23T02:31:16;96.07;;;91.97;;
64157;SDS011;50449;51.528;5.076;2024-03-23T02:33:41;97.30;;;93.13;;
64157;SDS011;50449;51.528;5.076;2024-03-23T02:36:07;94.28;;;90.07;;
64157;SDS011;50449;51.528;5.076;2024-03-23T02:38:32;94.05;;;89.95;;
64157;SDS011;50449;51.528;5.076;2024-03-23T02:41:02;91.03;;;87.10;;
64157;SDS011;50449;51.528;5.076;2024-03-23T02:43:28;95.35;;;91.22;;
64157;SDS011;50449;51.528;5.076;2024-03-23T02:45:54;95.00;;;90.88;;
64157;SDS011;50449;51.528;5.076;2024-03-23T02:48:19;93.35;;;88.85;;
64157;SDS011;50449;51.528;5.076;2024-03-23T02:50:44;95.65;;;90.85;;
64157;SDS011;50449;51.528;5.076;2024-03-23T02:53:10;95.80;;;91.60;;
64157;SDS011;50449;51.528;5.076;2024-03-23T02:55:35;91.30;;;87.32;;
64157;SDS011;50449;51.528;5.076;2024-03-23T02:58:01;97.28;;;93.05;;
64157;SDS011;50449;51.528;5.076;2024-03-23T03:00:27;93.97;;;89.75;;
64157;SDS011;50449;51.528;5.076;2024-03-23T03:02:53;92.57;;;88.57;;
64157;SDS011;50449;51.528;5.076;2024-03-23T03:05:18;100.63;;;95.13;;
64157;SDS011;50449;51.528;5.076;2024-03-23T03:07:44;92.13;;;88.10;;
64157;SDS011;50449;51.528;5.076;2024-03-23T03:10:09;93.15;;;89.05;;
64157;SDS011;50449;51.528;5.076;2024-03-23T03:12:36;94.63;;;90.32;;
64157;SDS011;50449;51.528;5.076;2024-03-23T03:15:02;97.07;;;92.90;;
64157;SDS011;50449;51.528;5.076;2024-03-23T03:17:29;92.63;;;88.55;;
64157;SDS011;50449;51.528;5.076;2024-03-23T03:19:55;92.38;;;88.40;;
64157;SDS011;50449;51.528;5.076;2024-03-23T03:22:21;94.50;;;90.25;;
64157;SDS011;50449;51.528;5.076;2024-03-23T03:24:47;95.53;;;91.13;;
64157;SDS011;50449;51.528;5.076;2024-03-23T03:27:12;98.47;;;94.18;;
64157;SDS011;50449;51.528;5.076;2024-03-23T03:29:38;94.60;;;90.40;;
64157;SDS011;50449;51.528;5.076;2024-03-23T03:32:03;91.60;;;87.65;;
64157;SDS011;50449;51.528;5.076;2024-03-23T03:34:29;96.95;;;92.80;;
64157;SDS011;50449;51.528;5.076;2024-03-23T03:36:54;97.65;;;93.25;;
64157;SDS011;50449;51.528;5.076;2024-03-23T03:39:20;95.78;;;91.47;;
64157;SDS011;50449;51.528;5.076;2024-03-23T03:41:47;93.50;;;89.47;;
64157;SDS011;50449;51.528;5.076;2024-03-23T03:44:13;92.28;;;88.25;;
64157;SDS011;50449;51.528;5.076;2024-03-23T03:46:38;93.55;;;89.55;;
64157;SDS011;50449;51.528;5.076;2024-03-23T03:49:03;92.88;;;88.82;;
64157;SDS011;50449;51.528;5.076;2024-03-23T03:51:29;92.90;;;88.50;;
64157;SDS011;50449;51.528;5.076;2024-03-23T03:53:54;92.78;;;88.72;;
64157;SDS011;50449;51.528;5.076;2024-03-23T03:56:20;93.03;;;88.90;;
64157;SDS011;50449;51.528;5.076;2024-03-23T03:58:46;96.60;;;92.28;;
64157;SDS011;50449;51.528;5.076;2024-03-23T04:01:12;90.63;;;86.55;;
64157;SDS011;50449;51.528;5.076;2024-03-23T04:03:37;88.45;;;84.55;;
64157;SDS011;50449;51.528;5.076;2024-03-23T04:06:08;90.22;;;86.13;;
64157;SDS011;50449;51.528;5.076;2024-03-23T04:08:33;92.57;;;87.18;;
64157;SDS011;50449;51.528;5.076;2024-03-23T04:10:59;93.20;;;89.10;;
64157;SDS011;50449;51.528;5.076;2024-03-23T04:13:24;93.18;;;89.07;;
64157;SDS011;50449;51.528;5.076;2024-03-23T04:15:53;90.35;;;86.47;;
64157;SDS011;50449;51.528;5.076;2024-03-23T04:18:20;91.38;;;87.22;;
64157;SDS011;50449;51.528;5.076;2024-03-23T04:20:45;93.22;;;88.68;;
64157;SDS011;50449;51.528;5.076;2024-03-23T04:23:10;90.47;;;86.45;;
64157;SDS011;50449;51.528;5.076;2024-03-23T04:25:36;90.30;;;86.30;;
64157;SDS011;50449;51.528;5.076;2024-03-23T04:28:01;90.10;;;86.13;;
64157;SDS011;50449;51.528;5.076;2024-03-23T04:30:26;93.40;;;89.20;;
64157;SDS011;50449;51.528;5.076;2024-03-23T04:32:54;90.05;;;86.15;;
64157;SDS011;50449;51.528;5.076;2024-03-23T04:35:19;89.70;;;85.55;;
64157;SDS011;50449;51.528;5.076;2024-03-23T04:37:47;87.85;;;84.05;;
64157;SDS011;50449;51.528;5.076;2024-03-23T04:40:12;89.68;;;85.70;;
64157;SDS011;50449;51.528;5.076;2024-03-23T04:42:38;90.82;;;86.75;;
64157;SDS011;50449;51.528;5.076;2024-03-23T04:45:04;87.07;;;83.28;;
64157;SDS011;50449;51.528;5.076;2024-03-23T04:47:31;89.90;;;85.95;;
64157;SDS011;50449;51.528;5.076;2024-03-23T04:49:56;87.82;;;83.93;;
64157;SDS011;50449;51.528;5.076;2024-03-23T04:52:22;93.38;;;89.18;;
64157;SDS011;50449;51.528;5.076;2024-03-23T04:54:47;90.60;;;86.18;;
64157;SDS011;50449;51.528;5.076;2024-03-23T04:57:12;89.18;;;85.22;;
64157;SDS011;50449;51.528;5.076;2024-03-23T04:59:38;87.95;;;84.13;;
64157;SDS011;50449;51.528;5.076;2024-03-23T05:02:03;88.45;;;84.25;;
64157;SDS011;50449;51.528;5.076;2024-03-23T05:04:29;84.32;;;80.53;;
64157;SDS011;50449;51.528;5.076;2024-03-23T05:06:54;86.15;;;82.40;;
64157;SDS011;50449;51.528;5.076;2024-03-23T05:09:20;86.80;;;82.88;;
64157;SDS011;50449;51.528;5.076;2024-03-23T05:11:46;91.82;;;87.72;;
64157;SDS011;50449;51.528;5.076;2024-03-23T05:14:14;85.63;;;81.88;;
64157;SDS011;50449;51.528;5.076;2024-03-23T05:16:40;88.00;;;83.78;;
64157;SDS011;50449;51.528;5.076;2024-03-23T05:19:05;88.50;;;84.68;;
64157;SDS011;50449;51.528;5.076;2024-03-23T05:21:31;86.10;;;82.20;;
64157;SDS011;50449;51.528;5.076;2024-03-23T05:23:56;90.03;;;85.88;;
64157;SDS011;50449;51.528;5.076;2024-03-23T05:26:22;87.75;;;83.85;;
64157;SDS011;50449;51.528;5.076;2024-03-23T05:28:48;84.82;;;81.15;;
64157;SDS011;50449;51.528;5.076;2024-03-23T05:31:22;86.35;;;82.55;;
64157;SDS011;50449;51.528;5.076;2024-03-23T05:33:51;87.43;;;83.55;;
64157;SDS011;50449;51.528;5.076;2024-03-23T05:36:17;86.75;;;82.78;;
64157;SDS011;50449;51.528;5.076;2024-03-23T05:38:42;86.88;;;82.38;;
64157;SDS011;50449;51.528;5.076;2024-03-23T05:41:08;87.53;;;83.63;;
64157;SDS011;50449;51.528;5.076;2024-03-23T05:43:33;88.70;;;84.50;;
64157;SDS011;50449;51.528;5.076;2024-03-23T05:45:59;83.57;;;79.90;;
64157;SDS011;50449;51.528;5.076;2024-03-23T05:48:25;86.82;;;82.88;;
64157;SDS011;50449;51.528;5.076;2024-03-23T05:50:51;86.72;;;82.07;;
64157;SDS011;50449;51.528;5.076;2024-03-23T05:53:17;85.20;;;81.40;;
64157;SDS011;50449;51.528;5.076;2024-03-23T05:55:44;86.47;;;82.43;;
64157;SDS011;50449;51.528;5.076;2024-03-23T05:58:09;84.60;;;80.90;;
64157;SDS011;50449;51.528;5.076;2024-03-23T06:00:35;86.03;;;82.07;;
64157;SDS011;50449;51.528;5.076;2024-03-23T06:03:00;78.85;;;75.40;;
64157;SDS011;50449;51.528;5.076;2024-03-23T06:05:26;84.00;;;80.25;;
64157;SDS011;50449;51.528;5.076;2024-03-23T06:07:52;82.50;;;78.90;;
64157;SDS011;50449;51.528;5.076;2024-03-23T06:10:18;84.72;;;81.03;;
64157;SDS011;50449;51.528;5.076;2024-03-23T06:12:43;83.85;;;80.03;;
64157;SDS011;50449;51.528;5.076;2024-03-23T06:15:10;83.88;;;80.18;;
64157;SDS011;50449;51.528;5.076;2024-03-23T06:17:36;84.88;;;80.78;;
64157;SDS011;50449;51.528;5.076;2024-03-23T06:20:02;82.68;;;78.45;;
64157;SDS011;50449;51.528;5.076;2024-03-23T06:22:28;86.15;;;82.28;;
64157;SDS011;50449;51.528;5.076;2024-03-23T06:24:53;83.15;;;79.45;;
64157;SDS011;50449;51.528;5.076;2024-03-23T06:27:19;79.60;;;76.10;;
64157;SDS011;50449;51.528;5.076;2024-03-23T06:29:44;79.40;;;75.88;;
64157;SDS011;50449;51.528;5.076;2024-03-23T06:32:10;80.25;;;76.55;;
64157;SDS011;50449;51.528;5.076;2024-03-23T06:34:35;82.03;;;78.15;;
64157;SDS011;50449;51.528;5.076;2024-03-23T06:37:00;81.45;;;76.85;;
64157;SDS011;50449;51.528;5.076;2024-03-23T06:39:26;80.55;;;76.75;;
64157;SDS011;50449;51.528;5.076;2024-03-23T06:41:52;81.05;;;77.45;;
64157;SDS011;50449;51.528;5.076;2024-03-23T06:44:18;80.82;;;76.50;;
64157;SDS011;50449;51.528;5.076;2024-03-23T06:46:45;79.93;;;76.38;;
64157;SDS011;50449;51.528;5.076;2024-03-23T06:49:10;79.70;;;76.03;;
64157;SDS011;50449;51.528;5.076;2024-03-23T06:51:36;80.45;;;76.75;;
64157;SDS011;50449;51.528;5.076;2024-03-23T06:54:03;81.63;;;78.03;;
64157;SDS011;50449;51.528;5.076;2024-03-23T06:56:28;83.13;;;78.82;;
64157;SDS011;50449;51.528;5.076;2024-03-23T06:58:54;76.70;;;73.28;;
64157;SDS011;50449;51.528;5.076;2024-03-23T07:01:19;79.10;;;75.57;;
64157;SDS011;50449;51.528;5.076;2024-03-23T07:03:45;73.38;;;69.68;;
64157;SDS011;50449;51.528;5.076;2024-03-23T07:06:10;80.82;;;77.03;;
64157;SDS011;50449;51.528;5.076;2024-03-23T07:08:35;82.38;;;78.68;;
64157;SDS011;50449;51.528;5.076;2024-03-23T07:11:01;78.65;;;75.15;;
64157;SDS011;50449;51.528;5.076;2024-03-23T07:13:27;76.78;;;73.35;;
64157;SDS011;50449;51.528;5.076;2024-03-23T07:15:53;78.63;;;75.20;;
64157;SDS011;50449;51.528;5.076;2024-03-23T07:18:20;79.32;;;75.82;;
64157;SDS011;50449;51.528;5.076;2024-03-23T07:20:53;74.93;;;71.57;;
64157;SDS011;50449;51.528;5.076;2024-03-23T07:23:19;79.18;;;75.68;;
64157;SDS011;50449;51.528;5.076;2024-03-23T07:25:45;76.93;;;73.47;;
64157;SDS011;50449;51.528;5.076;2024-03-23T07:28:10;77.22;;;73.70;;
64157;SDS011;50449;51.528;5.076;2024-03-23T07:30:35;74.50;;;71.10;;
64157;SDS011;50449;51.528;5.076;2024-03-23T07:33:01;79.60;;;76.00;;
64157;SDS011;50449;51.528;5.076;2024-03-23T07:35:26;77.95;;;74.43;;
64157;SDS011;50449;51.528;5.076;2024-03-23T07:37:51;74.47;;;71.18;;
64157;SDS011;50449;51.528;5.076;2024-03-23T07:40:17;77.72;;;74.30;;
64157;SDS011;50449;51.528;5.076;2024-03-23T07:42:42;79.60;;;76.00;;
64157;SDS011;50449;51.528;5.076;2024-03-23T07:45:08;74.90;;;71.10;;
64157;SDS011;50449;51.528;5.076;2024-03-23T07:47:34;78.07;;;74.55;;
64157;SDS011;50449;51.528;5.076;2024-03-23T07:50:00;70.93;;;67.78;;
64157;SDS011;50449;51.528;5.076;2024-03-23T07:52:27;76.80;;;72.85;;
64157;SDS011;50449;51.528;5.076;2024-03-23T07:54:54;78.32;;;74.93;;
64157;SDS011;50449;51.528;5.076;2024-03-23T07:57:19;74.68;;;71.05;;
64157;SDS011;50449;51.528;5.076;2024-03-23T07:59:44;77.28;;;73.43;;
64157;SDS011;50449;51.528;5.076;2024-03-23T08:02:10;79.22;;;75.07;;
64157;SDS011;50449;51.528;5.076;2024-03-23T08:04:36;78.63;;;74.68;;
64157;SDS011;50449;51.528;5.076;2024-03-23T08:07:01;76.00;;;72.60;;
64157;SDS011;50449;51.528;5.076;2024-03-23T08:09:27;76.28;;;72.85;;
64157;SDS011;50449;51.528;5.076;2024-03-23T08:11:52;71.65;;;68.45;;
64157;SDS011;50449;51.528;5.076;2024-03-23T08:14:18;74.03;;;70.43;;
64157;SDS011;50449;51.528;5.076;2024-03-23T08:16:43;76.28;;;72.70;;
64157;SDS011;50449;51.528;5.076;2024-03-23T08:19:13;74.20;;;70.38;;
64157;SDS011;50449;51.528;5.076;2024-03-23T08:21:39;77.53;;;73.68;;
64157;SDS011;50449;51.528;5.076;2024-03-23T08:24:05;76.38;;;72.95;;
64157;SDS011;50449;51.528;5.076;2024-03-23T08:26:30;80.50;;;76.80;;
64157;SDS011;50449;51.528;5.076;2024-03-23T08:28:56;77.88;;;74.38;;
64157;SDS011;50449;51.528;5.076;2024-03-23T08:31:22;75.30;;;71.90;;
64157;SDS011;50449;51.528;5.076;2024-03-23T08:33:47;78.07;;;74.18;;
64157;SDS011;50449;51.528;5.076;2024-03-23T08:36:12;72.03;;;68.72;;
64157;SDS011;50449;51.528;5.076;2024-03-23T08:38:39;74.97;;;71.40;;
64157;SDS011;50449;51.528;5.076;2024-03-23T08:41:05;80.55;;;77.05;;
64157;SDS011;50449;51.528;5.076;2024-03-23T08:43:33;78.57;;;74.68;;
64157;SDS011;50449;51.528;5.076;2024-03-23T08:46:07;76.68;;;73.30;;
64157;SDS011;50449;51.528;5.076;2024-03-23T08:48:34;79.40;;;75.57;;
64157;SDS011;50449;51.528;5.076;2024-03-23T08:51:04;70.38;;;67.18;;
64157;SDS011;50449;51.528;5.076;2024-03-23T08:53:33;74.03;;;70.72;;
64157;SDS011;50449;51.528;5.076;2024-03-23T08:55:59;79.18;;;75.38;;
64157;SDS011;50449;51.528;5.076;2024-03-23T09:00:55;70.90;;;67.78;;
64157;SDS011;50449;51.528;5.076;2024-03-23T09:03:23;67.47;;;64.32;;
64157;SDS011;50449;51.528;5.076;2024-03-23T09:05:49;70.90;;;67.47;;
64157;SDS011;50449;51.528;5.076;2024-03-23T09:08:15;79.90;;;76.38;;
64157;SDS011;50449;51.528;5.076;2024-03-23T09:10:40;73.57;;;70.18;;
64157;SDS011;50449;51.528;5.076;2024-03-23T09:13:07;74.70;;;70.25;;
64157;SDS011;50449;51.528;5.076;2024-03-23T09:15:37;69.70;;;66.57;;
64157;SDS011;50449;51.528;5.076;2024-03-23T09:18:11;73.28;;;69.82;;
64157;SDS011;50449;51.528;5.076;2024-03-23T09:20:37;72.20;;;68.65;;
64157;SDS011;50449;51.528;5.076;2024-03-23T09:23:02;71.05;;;67.57;;
64157;SDS011;50449;51.528;5.076;2024-03-23T09:25:28;76.40;;;72.78;;
64157;SDS011;50449;51.528;5.076;2024-03-23T09:27:53;73.85;;;70.05;;
64157;SDS011;50449;51.528;5.076;2024-03-23T09:30:18;71.97;;;68.47;;
64157;SDS011;50449;51.528;5.076;2024-03-23T09:32:45;73.72;;;69.50;;
64157;SDS011;50449;51.528;5.076;2024-03-23T09:35:10;72.57;;;69.10;;
64157;SDS011;50449;51.528;5.076;2024-03-23T09:37:36;68.78;;;65.68;;
64157;SDS011;50449;51.528;5.076;2024-03-23T09:40:06;68.03;;;64.97;;
64157;SDS011;50449;51.528;5.076;2024-03-23T09:42:36;72.85;;;69.60;;
64157;SDS011;50449;51.528;5.076;2024-03-23T09:45:02;75.30;;;71.70;;
64157;SDS011;50449;51.528;5.076;2024-03-23T09:47:30;73.53;;;70.22;;
64157;SDS011;50449;51.528;5.076;2024-03-23T09:49:57;71.70;;;68.50;;
64157;SDS011;50449;51.528;5.076;2024-03-23T09:52:22;70.57;;;67.18;;
64157;SDS011;50449;51.528;5.076;2024-03-23T09:54:48;72.22;;;68.85;;
64157;SDS011;50449;51.528;5.076;2024-03-23T09:57:13;72.38;;;69.10;;
64157;SDS011;50449;51.528;5.076;2024-03-23T09:59:39;77.40;;;73.95;;
64157;SDS011;50449;51.528;5.076;2024-03-23T10:02:04;74.55;;;71.05;;
64157;SDS011;50449;51.528;5.076;2024-03-23T10:04:40;70.78;;;67.57;;
64157;SDS011;50449;51.528;5.076;2024-03-23T10:07:18;75.35;;;71.85;;
64157;SDS011;50449;51.528;5.076;2024-03-23T10:09:44;72.60;;;69.20;;
64157;SDS011;50449;51.528;5.076;2024-03-23T10:12:12;77.13;;;73.63;;
64157;SDS011;50449;51.528;5.076;2024-03-23T10:14:41;76.70;;;72.90;;
64157;SDS011;50449;51.528;5.076;2024-03-23T10:19:40;71.25;;;68.13;;
64157;SDS011;50449;51.528;5.076;2024-03-23T10:22:07;66.82;;;63.67;;
64157;SDS011;50449;51.528;5.076;2024-03-23T10:24:33;74.93;;;71.60;;
64157;SDS011;50449;51.528;5.076;2024-03-23T10:26:59;74.22;;;70.80;;
64157;SDS011;50449;51.528;5.076;2024-03-23T10:29:24;73.05;;;69.78;;
64157;SDS011;50449;51.528;5.076;2024-03-23T10:31:52;76.55;;;72.90;;
64157;SDS011;50449;51.528;5.076;2024-03-23T10:34:24;74.38;;;71.07;;
64157;SDS011;50449;51.528;5.076;2024-03-23T10:36:52;77.53;;;73.85;;
64157;SDS011;50449;51.528;5.076;2024-03-23T10:39:19;74.47;;;71.18;;
64157;SDS011;50449;51.528;5.076;2024-03-23T10:41:46;81.03;;;77.07;;
64157;SDS011;50449;51.528;5.076;2024-03-23T10:46:42;67.53;;;64.35;;
64157;SDS011;50449;51.528;5.076;2024-03-23T10:49:07;71.65;;;68.38;;
64157;SDS011;50449;51.528;5.076;2024-03-23T10:51:32;76.40;;;72.90;;
64157;SDS011;50449;51.528;5.076;2024-03-23T10:53:58;75.90;;;72.40;;
64157;SDS011;50449;51.528;5.076;2024-03-23T10:56:25;75.47;;;72.07;;
64157;SDS011;50449;51.528;5.076;2024-03-23T10:58:54;74.68;;;71.15;;
64157;SDS011;50449;51.528;5.076;2024-03-23T11:01:19;74.50;;;71.10;;
64157;SDS011;50449;51.528;5.076;2024-03-23T11:03:45;78.13;;;74.40;;
64157;SDS011;50449;51.528;5.076;2024-03-23T11:06:32;74.57;;;71.18;;
64157;SDS011;50449;51.528;5.076;2024-03-23T11:09:01;72.43;;;69.05;;
64157;SDS011;50449;51.528;5.076;2024-03-23T11:11:26;74.53;;;71.22;;
64157;SDS011;50449;51.528;5.076;2024-03-23T11:13:53;75.82;;;72.07;;
64157;SDS011;50449;51.528;5.076;2024-03-23T11:16:25;72.05;;;68.70;;
64157;SDS011;50449;51.528;5.076;2024-03-23T11:21:59;73.55;;;70.05;;
64157;SDS011;50449;51.528;5.076;2024-03-23T11:24:25;77.15;;;73.65;;
64157;SDS011;50449;51.528;5.076;2024-03-23T11:26:50;75.50;;;71.45;;
64157;SDS011;50449;51.528;5.076;2024-03-23T11:29:16;73.43;;;70.00;;
64157;SDS011;50449;51.528;5.076;2024-03-23T11:31:50;74.90;;;71.40;;
64157;SDS011;50449;51.528;5.076;2024-03-23T11:34:16;80.95;;;76.97;;
64157;SDS011;50449;51.528;5.076;2024-03-23T11:36:43;82.03;;;78.32;;
64157;SDS011;50449;51.528;5.076;2024-03-23T11:39:26;75.25;;;71.95;;
64157;SDS011;50449;51.528;5.076;2024-03-23T11:41:52;71.28;;;67.88;;
64157;SDS011;50449;51.528;5.076;2024-03-23T11:44:19;73.43;;;70.13;;
64157;SDS011;50449;51.528;5.076;2024-03-23T11:46:46;73.93;;;70.53;;
64157;SDS011;50449;51.528;5.076;2024-03-23T11:51:53;76.50;;;72.80;;
64157;SDS011;50449;51.528;5.076;2024-03-23T11:54:24;78.30;;;74.80;;
64157;SDS011;50449;51.528;5.076;2024-03-23T11:57:01;75.68;;;72.18;;
64157;SDS011;50449;51.528;5.076;2024-03-23T11:59:39;76.00;;;72.55;;
64157;SDS011;50449;51.528;5.076;2024-03-23T12:02:09;77.90;;;74.38;;
64157;SDS011;50449;51.528;5.076;2024-03-23T12:04:36;78.55;;;74.95;;
64157;SDS011;50449;51.528;5.076;2024-03-23T12:07:18;78.03;;;74.43;;
64157;SDS011;50449;51.528;5.076;2024-03-23T12:09:46;75.40;;;71.80;;
64157;SDS011;50449;51.528;5.076;2024-03-23T12:12:16;76.40;;;73.03;;
64157;SDS011;50449;51.528;5.076;2024-03-23T12:14:45;77.45;;;73.95;;
64157;SDS011;50449;51.528;5.076;2024-03-23T12:17:26;81.70;;;77.97;;
64157;SDS011;50449;51.528;5.076;2024-03-23T12:19:51;82.40;;;78.70;;
64157;SDS011;50449;51.528;5.076;2024-03-23T12:22:20;76.65;;;73.25;;
64157;SDS011;50449;51.528;5.076;2024-03-23T12:24:45;75.80;;;72.40;;
64157;SDS011;50449;51.528;5.076;2024-03-23T12:27:11;83.07;;;79.40;;
64157;SDS011;50449;51.528;5.076;2024-03-23T12:29:36;77.05;;;73.65;;
64157;SDS011;50449;51.528;5.076;2024-03-23T12:32:04;84.70;;;80.50;;
64157;SDS011;50449;51.528;5.076;2024-03-23T12:34:29;80.53;;;76.82;;
64157;SDS011;50449;51.528;5.076;2024-03-23T12:36:55;79.35;;;75.68;;
64157;SDS011;50449;51.528;5.076;2024-03-23T12:39:21;79.57;;;76.07;;
64157;SDS011;50449;51.528;5.076;2024-03-23T12:41:47;79.53;;;75.93;;
64157;SDS011;50449;51.528;5.076;2024-03-23T12:44:13;80.47;;;76.88;;
64157;SDS011;50449;51.528;5.076;2024-03-23T12:46:40;81.25;;;77.60;;
64157;SDS011;50449;51.528;5.076;2024-03-23T12:49:06;84.82;;;80.63;;
64157;SDS011;50449;51.528;5.076;2024-03-23T12:51:32;82.35;;;78.35;;
64157;SDS011;50449;51.528;5.076;2024-03-23T12:53:58;85.68;;;81.80;;
64157;SDS011;50449;51.528;5.076;2024-03-23T12:56:24;85.30;;;81.50;;
64157;SDS011;50449;51.528;5.076;2024-03-23T12:58:49;79.70;;;76.15;;
64157;SDS011;50449;51.528;5.076;2024-03-23T13:01:16;78.82;;;75.32;;
64157;SDS011;50449;51.528;5.076;2024-03-23T13:03:42;79.20;;;75.57;;
64157;SDS011;50449;51.528;5.076;2024-03-23T13:06:09;82.22;;;78.35;;
64157;SDS011;50449;51.528;5.076;2024-03-23T13:08:35;76.68;;;73.18;;
64157;SDS011;50449;51.528;5.076;2024-03-23T13:11:01;79.68;;;75.97;;
64157;SDS011;50449;51.528;5.076;2024-03-23T13:13:26;76.38;;;72.97;;
64157;SDS011;50449;51.528;5.076;2024-03-23T13:15:51;80.07;;;76.47;;
64157;SDS011;50449;51.528;5.076;2024-03-23T13:18:17;80.15;;;76.55;;
64157;SDS011;50449;51.528;5.076;2024-03-23T13:20:42;78.13;;;74.60;;
64157;SDS011;50449;51.528;5.076;2024-03-23T13:23:08;85.20;;;81.30;;
64157;SDS011;50449;51.528;5.076;2024-03-23T13:25:33;79.72;;;75.90;;
64157;SDS011;50449;51.528;5.076;2024-03-23T13:27:59;82.13;;;78.40;;
64157;SDS011;50449;51.528;5.076;2024-03-23T13:30:24;77.97;;;74.53;;
64157;SDS011;50449;51.528;5.076;2024-03-23T13:32:50;80.32;;;76.78;;
64157;SDS011;50449;51.528;5.076;2024-03-23T13:35:15;80.55;;;76.95;;
64157;SDS011;50449;51.528;5.076;2024-03-23T13:37:41;80.18;;;76.28;;
64157;SDS011;50449;51.528;5.076;2024-03-23T13:40:07;81.03;;;77.28;;
64157;SDS011;50449;51.528;5.076;2024-03-23T13:42:33;77.00;;;73.60;;
64157;SDS011;50449;51.528;5.076;2024-03-23T13:44:58;79.18;;;75.55;;
64157;SDS011;50449;51.528;5.076;2024-03-23T13:47:23;78.32;;;74.72;;
64157;SDS011;50449;51.528;5.076;2024-03-23T13:49:49;85.80;;;81.53;;
64157;SDS011;50449;51.528;5.076;2024-03-23T13:52:14;81.88;;;77.93;;
64157;SDS011;50449;51.528;5.076;2024-03-23T13:54:39;83.25;;;79.53;;
64157;SDS011;50449;51.528;5.076;2024-03-23T13:57:10;84.53;;;80.63;;
64157;SDS011;50449;51.528;5.076;2024-03-23T13:59:35;86.50;;;82.68;;
64157;SDS011;50449;51.528;5.076;2024-03-23T14:02:01;82.82;;;78.82;;
64157;SDS011;50449;51.528;5.076;2024-03-23T14:04:26;82.45;;;78.55;;
64157;SDS011;50449;51.528;5.076;2024-03-23T14:06:52;90.90;;;86.70;;
64157;SDS011;50449;51.528;5.076;2024-03-23T14:09:17;88.65;;;84.53;;
64157;SDS011;50449;51.528;5.076;2024-03-23T14:11:50;82.38;;;78.15;;
64157;SDS011;50449;51.528;5.076;2024-03-23T14:14:16;86.97;;;82.80;;
64157;SDS011;50449;51.528;5.076;2024-03-23T14:16:42;85.43;;;81.25;;
64157;SDS011;50449;51.528;5.076;2024-03-23T14:19:08;86.80;;;82.70;;
64157;SDS011;50449;51.528;5.076;2024-03-23T14:21:33;84.38;;;80.30;;
64157;SDS011;50449;51.528;5.076;2024-03-23T14:24:01;85.22;;;81.10;;
64157;SDS011;50449;51.528;5.076;2024-03-23T14:26:27;88.63;;;84.63;;
64157;SDS011;50449;51.528;5.076;2024-03-23T14:28:53;89.95;;;85.70;;
64157;SDS011;50449;51.528;5.076;2024-03-23T14:31:19;90.72;;;86.38;;
64157;SDS011;50449;51.528;5.076;2024-03-23T14:33:44;80.50;;;76.93;;
64157;SDS011;50449;51.528;5.076;2024-03-23T14:36:13;88.57;;;84.53;;
64157;SDS011;50449;51.528;5.076;2024-03-23T14:38:39;85.20;;;81.35;;
64157;SDS011;50449;51.528;5.076;2024-03-23T14:41:05;85.82;;;81.72;;
64157;SDS011;50449;51.528;5.076;2024-03-23T14:43:30;87.18;;;83.18;;
64157;SDS011;50449;51.528;5.076;2024-03-23T14:46:11;87.22;;;83.15;;
64157;SDS011;50449;51.528;5.076;2024-03-23T14:48:38;87.03;;;83.03;;
64157;SDS011;50449;51.528;5.076;2024-03-23T14:51:04;82.50;;;78.70;;
64157;SDS011;50449;51.528;5.076;2024-03-23T14:53:32;85.72;;;81.75;;
64157;SDS011;50449;51.528;5.076;2024-03-23T14:55:58;83.03;;;79.22;;
64157;SDS011;50449;51.528;5.076;2024-03-23T14:58:27;85.20;;;81.32;;
64157;SDS011;50449;51.528;5.076;2024-03-23T15:00:53;83.57;;;79.53;;
64157;SDS011;50449;51.528;5.076;2024-03-23T15:03:24;81.68;;;78.03;;
64157;SDS011;50449;51.528;5.076;2024-03-23T15:05:51;86.97;;;82.97;;
64157;SDS011;50449;51.528;5.076;2024-03-23T15:08:21;82.75;;;78.85;;
64157;SDS011;50449;51.528;5.076;2024-03-23T15:10:46;82.13;;;78.53;;
64157;SDS011;50449;51.528;5.076;2024-03-23T15:13:12;86.45;;;82.55;;
64157;SDS011;50449;51.528;5.076;2024-03-23T15:15:41;84.05;;;80.25;;
64157;SDS011;50449;51.528;5.076;2024-03-23T15:18:09;81.78;;;78.15;;
64157;SDS011;50449;51.528;5.076;2024-03-23T15:20:35;84.95;;;81.15;;
64157;SDS011;50449;51.528;5.076;2024-03-23T15:23:02;84.97;;;81.25;;